Time;durP1;ratioP1;P1;durP2;ratioP2;P2;SDS_P1;SDS_P2;PMS_P1;PMS_P2;Temp;Humidity;BMP_temperature;BMP_pressure;BME280_temperature;BME280_humidity;BME280_pressure;Samples;Min_cycle;Max_cycle;Signal;HPM_P1;HPM_P2
2022/12/19 00:01:21;;;;;;;0.20;0.10;;;;;;;;;;4934299;28;20046;-80
2022/12/19 00:03:49;;;;;;;0.20;0.10;;;;;;;;;;4932981;28;20118;-78
2022/12/19 00:06:16;;;;;;;0.20;0.10;;;;;;;;;;4930961;28;20043;-79
2022/12/19 00:08:43;;;;;;;0.40;0.40;;;;;;;;;;4915738;28;20047;-79
2022/12/19 00:11:09;;;;;;;0.20;0.10;;;;;;;;;;4930789;28;20047;-79
2022/12/19 00:13:37;;;;;;;0.20;0.10;;;;;;;;;;4914499;28;20044;-79
2022/12/19 00:16:07;;;;;;;0.20;0.10;;;;;;;;;;4913942;28;20071;-78
2022/12/19 00:18:34;;;;;;;0.20;0.10;;;;;;;;;;4928244;28;20047;-79
2022/12/19 00:21:01;;;;;;;0.20;0.10;;;;;;;;;;4914130;28;20031;-78
2022/12/19 00:23:28;;;;;;;0.20;0.10;;;;;;;;;;4907257;28;20039;-79
2022/12/19 00:25:55;;;;;;;0.20;0.10;;;;;;;;;;4927381;28;20035;-77
2022/12/19 00:28:21;;;;;;;0.20;0.10;;;;;;;;;;4928520;28;20094;-78
2022/12/19 00:30:47;;;;;;;0.20;0.10;;;;;;;;;;4927680;28;20379;-78
2022/12/19 00:33:13;;;;;;;0.20;0.10;;;;;;;;;;4911511;28;20509;-78
2022/12/19 00:35:39;;;;;;;0.20;0.10;;;;;;;;;;4927450;28;20036;-80
2022/12/19 00:38:05;;;;;;;0.20;0.10;;;;;;;;;;4913919;28;20036;-78
2022/12/19 00:40:31;;;;;;;0.55;0.55;;;;;;;;;;4928895;28;20035;-78
2022/12/19 00:42:57;;;;;;;0.20;0.10;;;;;;;;;;4928919;28;20039;-78
2022/12/19 00:45:23;;;;;;;0.20;0.10;;;;;;;;;;4927216;28;20059;-79
2022/12/19 00:47:49;;;;;;;0.20;0.10;;;;;;;;;;4940011;28;20044;-79
2022/12/19 00:50:15;;;;;;;0.20;0.10;;;;;;;;;;4910938;28;20043;-78
2022/12/19 00:52:41;;;;;;;0.20;0.10;;;;;;;;;;4913797;28;20032;-79
2022/12/19 00:55:07;;;;;;;0.20;0.10;;;;;;;;;;4926950;28;20494;-78
2022/12/19 00:57:33;;;;;;;3.20;2.05;;;;;;;;;;4929644;28;20039;-79
2022/12/19 00:59:59;;;;;;;0.20;0.10;;;;;;;;;;4908034;28;20493;-79
2022/12/19 01:02:25;;;;;;;0.20;0.10;;;;;;;;;;4928234;28;20288;-80
2022/12/19 01:04:51;;;;;;;0.20;0.20;;;;;;;;;;4929900;28;20398;-78
2022/12/19 01:07:17;;;;;;;0.20;0.10;;;;;;;;;;4906807;28;20035;-78
2022/12/19 01:09:43;;;;;;;0.20;0.10;;;;;;;;;;4927898;28;20071;-81
2022/12/19 01:14:55;;;;;;;0.20;0.10;;;;;;;;;;4930778;28;20075;-78
2022/12/19 01:17:21;;;;;;;0.20;0.10;;;;;;;;;;4923846;28;20070;-79
2022/12/19 01:19:47;;;;;;;0.20;0.10;;;;;;;;;;4911944;28;20040;-79
2022/12/19 01:22:13;;;;;;;0.20;0.10;;;;;;;;;;4928724;28;20043;-77
2022/12/19 01:24:39;;;;;;;1.00;0.98;;;;;;;;;;4927417;28;20036;-79
2022/12/19 01:27:05;;;;;;;0.20;0.20;;;;;;;;;;4911779;28;20176;-78
2022/12/19 01:29:32;;;;;;;0.20;0.10;;;;;;;;;;4923118;28;20197;-78
2022/12/19 01:31:58;;;;;;;0.20;0.10;;;;;;;;;;4932098;28;20051;-78
2022/12/19 01:34:24;;;;;;;0.20;0.10;;;;;;;;;;4928890;28;20043;-80
2022/12/19 01:36:50;;;;;;;0.20;0.10;;;;;;;;;;4929289;28;20044;-80
2022/12/19 01:39:16;;;;;;;0.75;0.75;;;;;;;;;;4928308;28;20054;-79
2022/12/19 01:41:41;;;;;;;7.32;1.20;;;;;;;;;;4915885;28;20036;-78
2022/12/19 01:44:08;;;;;;;0.20;0.10;;;;;;;;;;4916582;28;20529;-78
2022/12/19 01:46:42;;;;;;;0.20;0.10;;;;;;;;;;4931139;28;20040;-78
2022/12/19 01:49:18;;;;;;;0.20;0.10;;;;;;;;;;4909811;28;20050;-80
2022/12/19 01:51:45;;;;;;;0.20;0.10;;;;;;;;;;4923999;28;20040;-78
2022/12/19 01:54:14;;;;;;;0.20;0.10;;;;;;;;;;4926154;28;20469;-79
2022/12/19 01:56:42;;;;;;;0.20;0.10;;;;;;;;;;4912636;28;20039;-78
2022/12/19 01:59:10;;;;;;;0.20;0.20;;;;;;;;;;4926706;28;20079;-81
2022/12/19 02:01:36;;;;;;;0.20;0.10;;;;;;;;;;4926743;28;20040;-79
2022/12/19 02:04:03;;;;;;;0.20;0.10;;;;;;;;;;4926595;28;20048;-79
2022/12/19 02:06:30;;;;;;;0.20;0.10;;;;;;;;;;4926277;28;20065;-79
2022/12/19 02:08:56;;;;;;;0.20;0.10;;;;;;;;;;4938791;28;20044;-78
2022/12/19 02:11:22;;;;;;;0.20;0.10;;;;;;;;;;4931099;28;20649;-81
2022/12/19 02:13:48;;;;;;;0.20;0.10;;;;;;;;;;4927690;28;20051;-79
2022/12/19 02:16:19;;;;;;;0.20;0.10;;;;;;;;;;4932179;28;20103;-77
2022/12/19 02:19:03;;;;;;;0.20;0.10;;;;;;;;;;4930799;28;20100;-79
2022/12/19 02:21:39;;;;;;;0.20;0.10;;;;;;;;;;4924329;28;20032;-77
2022/12/19 02:24:08;;;;;;;0.20;0.20;;;;;;;;;;4913747;28;20047;-79
2022/12/19 02:26:43;;;;;;;1.02;0.80;;;;;;;;;;4925866;28;20039;-78
2022/12/19 02:29:24;;;;;;;0.20;0.10;;;;;;;;;;4926556;28;20039;-78
2022/12/19 02:31:57;;;;;;;0.28;0.28;;;;;;;;;;4924602;28;20036;-78
2022/12/19 02:34:23;;;;;;;;;;;;;;;;;;4927024;28;20043;-80
2022/12/19 02:37:00;;;;;;;0.20;0.10;;;;;;;;;;4921207;28;20340;-83
2022/12/19 02:39:41;;;;;;;0.20;0.10;;;;;;;;;;4926965;28;20047;-80
2022/12/19 02:42:08;;;;;;;0.20;0.13;;;;;;;;;;4942186;28;20095;-78
2022/12/19 02:44:40;;;;;;;0.20;0.10;;;;;;;;;;4931770;28;20050;-78
2022/12/19 02:47:07;;;;;;;0.20;0.10;;;;;;;;;;4920571;28;20039;-78
2022/12/19 02:49:34;;;;;;;0.28;0.28;;;;;;;;;;4933201;28;20099;-78
2022/12/19 02:52:32;;;;;;;0.20;0.10;;;;;;;;;;4920029;28;20410;-77
2022/12/19 02:55:10;;;;;;;0.20;0.10;;;;;;;;;;4932319;28;20035;-78
2022/12/19 02:57:40;;;;;;;1.15;0.30;;;;;;;;;;4945425;28;20541;-79
2022/12/19 03:00:07;;;;;;;0.20;0.10;;;;;;;;;;4928840;28;20122;-80
2022/12/19 03:02:45;;;;;;;0.20;0.10;;;;;;;;;;4922008;28;20043;-81
2022/12/19 03:05:18;;;;;;;0.20;0.10;;;;;;;;;;4930455;28;20417;-78
2022/12/19 03:07:44;;;;;;;0.47;0.43;;;;;;;;;;4925620;28;20054;-77
2022/12/19 03:10:14;;;;;;;0.20;0.10;;;;;;;;;;4926947;28;20595;-78
2022/12/19 03:12:46;;;;;;;0.20;0.10;;;;;;;;;;4929900;28;20078;-77
2022/12/19 03:15:13;;;;;;;0.20;0.10;;;;;;;;;;4909279;28;20040;-78
2022/12/19 03:17:39;;;;;;;0.20;0.10;;;;;;;;;;4927323;28;20093;-78
2022/12/19 03:20:10;;;;;;;0.93;0.82;;;;;;;;;;4929064;28;20516;-80
2022/12/19 03:22:36;;;;;;;0.20;0.10;;;;;;;;;;4932456;28;20118;-79
2022/12/19 03:25:02;;;;;;;0.20;0.10;;;;;;;;;;4933460;28;20082;-79
2022/12/19 03:27:30;;;;;;;0.20;0.20;;;;;;;;;;4928196;28;20044;-80
2022/12/19 03:30:01;;;;;;;0.20;0.10;;;;;;;;;;4910620;29;20043;-79
2022/12/19 03:32:28;;;;;;;0.20;0.20;;;;;;;;;;4926605;28;20044;-79
2022/12/19 03:35:26;;;;;;;0.43;0.43;;;;;;;;;;4941031;28;20413;-80
2022/12/19 03:37:54;;;;;;;0.20;0.10;;;;;;;;;;4938652;28;20104;-79
2022/12/19 03:40:23;;;;;;;0.20;0.10;;;;;;;;;;4908827;28;20036;-80
2022/12/19 03:43:08;;;;;;;0.20;0.10;;;;;;;;;;4923627;28;20727;-79
2022/12/19 03:45:53;;;;;;;0.20;0.10;;;;;;;;;;4919444;28;20042;-79
2022/12/19 03:48:23;;;;;;;0.20;0.10;;;;;;;;;;4911854;28;20093;-79
2022/12/19 03:50:58;;;;;;;0.20;0.10;;;;;;;;;;4907322;28;20151;-79
2022/12/19 03:53:43;;;;;;;0.20;0.10;;;;;;;;;;4914666;28;20048;-79
2022/12/19 03:56:14;;;;;;;0.32;0.30;;;;;;;;;;4925276;28;20046;-79
2022/12/19 03:58:42;;;;;;;0.20;0.10;;;;;;;;;;4925961;28;20073;-79
2022/12/19 04:01:09;;;;;;;0.20;0.10;;;;;;;;;;4904655;28;20420;-78
2022/12/19 04:03:35;;;;;;;0.20;0.10;;;;;;;;;;4909322;28;20135;-78
2022/12/19 04:06:01;;;;;;;0.20;0.10;;;;;;;;;;4922885;28;20039;-79
2022/12/19 04:08:28;;;;;;;0.20;0.10;;;;;;;;;;4910927;28;20055;-77
2022/12/19 04:10:57;;;;;;;0.20;0.10;;;;;;;;;;4908912;28;20043;-80
2022/12/19 04:13:26;;;;;;;0.20;0.10;;;;;;;;;;4922759;28;20063;-81
2022/12/19 04:16:04;;;;;;;0.20;0.10;;;;;;;;;;4909764;28;20074;-80
2022/12/19 04:18:31;;;;;;;0.20;0.10;;;;;;;;;;4967536;28;20098;-80
2022/12/19 04:21:19;;;;;;;0.25;0.25;;;;;;;;;;4924370;28;20405;-80
2022/12/19 04:23:49;;;;;;;0.20;0.10;;;;;;;;;;4939423;28;20058;-80
2022/12/19 04:26:16;;;;;;;0.20;0.10;;;;;;;;;;4923793;28;20067;-80
2022/12/19 04:28:45;;;;;;;0.20;0.10;;;;;;;;;;4927526;28;20047;-81
2022/12/19 04:31:13;;;;;;;0.20;0.10;;;;;;;;;;4935011;28;20356;-80
2022/12/19 04:33:39;;;;;;;0.20;0.10;;;;;;;;;;4902779;28;20043;-81
2022/12/19 04:36:05;;;;;;;0.20;0.10;;;;;;;;;;4920829;28;20488;-81
2022/12/19 04:38:31;;;;;;;0.20;0.10;;;;;;;;;;4921239;28;20433;-80
2022/12/19 04:40:57;;;;;;;0.20;0.10;;;;;;;;;;4920431;28;20059;-79
2022/12/19 04:43:23;;;;;;;0.20;0.10;;;;;;;;;;4921800;28;20075;-81
2022/12/19 04:45:49;;;;;;;0.20;0.10;;;;;;;;;;4906467;28;20038;-81
2022/12/19 04:48:15;;;;;;;0.20;0.10;;;;;;;;;;4907380;28;20055;-77
2022/12/19 04:50:41;;;;;;;0.20;0.10;;;;;;;;;;4911284;28;20040;-81
2022/12/19 04:53:08;;;;;;;0.20;0.10;;;;;;;;;;4927786;28;20040;-80
2022/12/19 04:55:34;;;;;;;0.35;0.30;;;;;;;;;;4928842;28;20046;-80
2022/12/19 04:57:59;;;;;;;0.20;0.20;;;;;;;;;;4928915;28;20086;-80
2022/12/19 05:00:26;;;;;;;0.20;0.10;;;;;;;;;;4914321;28;20129;-81
2022/12/19 05:02:52;;;;;;;0.52;0.52;;;;;;;;;;4932215;28;20036;-80
2022/12/19 05:05:18;;;;;;;0.38;0.35;;;;;;;;;;4920980;28;20078;-80
2022/12/19 05:07:44;;;;;;;6.03;2.92;;;;;;;;;;4908339;28;20434;-80
2022/12/19 05:10:10;;;;;;;0.20;0.10;;;;;;;;;;4925834;28;20135;-82
2022/12/19 05:12:36;;;;;;;0.20;0.10;;;;;;;;;;4911270;28;20264;-82
2022/12/19 05:15:02;;;;;;;0.20;0.15;;;;;;;;;;4927804;28;20540;-81
2022/12/19 05:17:28;;;;;;;0.20;0.10;;;;;;;;;;4926478;28;20678;-80
2022/12/19 05:19:54;;;;;;;0.73;0.57;;;;;;;;;;4912808;28;20040;-83
2022/12/19 05:22:20;;;;;;;0.20;0.15;;;;;;;;;;4927439;28;20063;-79
2022/12/19 05:24:46;;;;;;;1.33;0.40;;;;;;;;;;4926438;28;20631;-80
2022/12/19 05:27:12;;;;;;;0.20;0.10;;;;;;;;;;5006796;28;20065;-79
2022/12/19 05:29:38;;;;;;;0.70;0.70;;;;;;;;;;4973459;22;20187;-86
2022/12/19 05:32:04;;;;;;;0.20;0.10;;;;;;;;;;5017834;28;20140;-84
2022/12/19 05:34:30;;;;;;;0.20;0.10;;;;;;;;;;5015638;28;20037;-85
2022/12/19 05:36:56;;;;;;;0.20;0.17;;;;;;;;;;5029713;28;20041;-83
2022/12/19 05:39:22;;;;;;;0.20;0.20;;;;;;;;;;5016633;28;20091;-87
2022/12/19 05:41:48;;;;;;;0.20;0.10;;;;;;;;;;5005352;28;20030;-86
2022/12/19 05:44:14;;;;;;;0.20;0.15;;;;;;;;;;5001777;28;20417;-83
2022/12/19 05:46:40;;;;;;;0.20;0.10;;;;;;;;;;5015447;28;20033;-84
2022/12/19 05:49:06;;;;;;;0.20;0.10;;;;;;;;;;5001594;28;20073;-86
2022/12/19 05:51:32;;;;;;;0.20;0.20;;;;;;;;;;4993303;28;20045;-83
2022/12/19 05:54:00;;;;;;;0.20;0.10;;;;;;;;;;5018312;28;20037;-84
2022/12/19 05:56:26;;;;;;;0.20;0.20;;;;;;;;;;5001495;28;20057;-85
2022/12/19 05:58:53;;;;;;;0.20;0.10;;;;;;;;;;5005209;28;20107;-85
2022/12/19 06:01:23;;;;;;;0.20;0.10;;;;;;;;;;5016776;28;20053;-85
2022/12/19 06:03:49;;;;;;;0.20;0.10;;;;;;;;;;5013666;28;20419;-84
2022/12/19 06:06:17;;;;;;;0.20;0.10;;;;;;;;;;4994772;28;20029;-84
2022/12/19 06:08:43;;;;;;;3.60;0.65;;;;;;;;;;5006467;28;20083;-85
2022/12/19 06:11:10;;;;;;;0.20;0.20;;;;;;;;;;5016590;28;20358;-84
2022/12/19 06:13:36;;;;;;;0.50;0.50;;;;;;;;;;5019344;28;20041;-82
2022/12/19 06:16:02;;;;;;;0.20;0.20;;;;;;;;;;5016975;28;20099;-85
2022/12/19 06:18:29;;;;;;;0.40;0.30;;;;;;;;;;5018452;28;20512;-83
2022/12/19 06:21:02;;;;;;;0.30;0.30;;;;;;;;;;5002410;28;20030;-86
2022/12/19 06:23:29;;;;;;;0.20;0.10;;;;;;;;;;5015433;28;20041;-85
2022/12/19 06:25:56;;;;;;;0.52;0.40;;;;;;;;;;4995063;28;20049;-85
2022/12/19 06:28:22;;;;;;;0.20;0.17;;;;;;;;;;5011485;28;20518;-85
2022/12/19 06:30:48;;;;;;;0.20;0.20;;;;;;;;;;5014014;28;20410;-84
2022/12/19 06:33:16;;;;;;;0.30;0.30;;;;;;;;;;4994435;28;20049;-84
2022/12/19 06:35:43;;;;;;;0.52;0.52;;;;;;;;;;5017209;28;20865;-84
2022/12/19 06:38:09;;;;;;;0.68;0.45;;;;;;;;;;5022784;28;20487;-84
2022/12/19 06:43:23;;;;;;;0.20;0.10;;;;;;;;;;5022367;28;20095;-84
2022/12/19 06:45:49;;;;;;;0.45;0.20;;;;;;;;;;5021173;28;20065;-84
2022/12/19 06:48:15;;;;;;;0.20;0.10;;;;;;;;;;5020691;28;20048;-87
2022/12/19 06:50:41;;;;;;;0.20;0.10;;;;;;;;;;5017737;28;21355;-85
2022/12/19 06:53:09;;;;;;;0.50;0.45;;;;;;;;;;5018241;28;20048;-86
2022/12/19 06:55:36;;;;;;;0.43;0.43;;;;;;;;;;4999724;28;20483;-83
2022/12/19 06:58:05;;;;;;;3.08;2.85;;;;;;;;;;5010973;28;20057;-84
2022/12/19 07:00:34;;;;;;;0.20;0.13;;;;;;;;;;5015832;28;20082;-86
2022/12/19 07:03:00;;;;;;;0.57;0.22;;;;;;;;;;5016238;28;20049;-85
2022/12/19 07:05:26;;;;;;;0.20;0.10;;;;;;;;;;5003782;28;20037;-83
2022/12/19 07:07:52;;;;;;;0.20;0.20;;;;;;;;;;5021597;28;20037;-84
2022/12/19 07:10:18;;;;;;;0.20;0.10;;;;;;;;;;5000131;28;20396;-85
2022/12/19 07:12:45;;;;;;;0.20;0.10;;;;;;;;;;5009513;28;20046;-86
2022/12/19 07:15:11;;;;;;;0.20;0.10;;;;;;;;;;5012494;28;20037;-86
2022/12/19 07:17:37;;;;;;;0.20;0.10;;;;;;;;;;5019208;28;20448;-86
2022/12/19 07:20:04;;;;;;;0.65;0.47;;;;;;;;;;4994856;28;20064;-85
2022/12/19 07:22:32;;;;;;;0.20;0.10;;;;;;;;;;5003875;28;20037;-87
2022/12/19 07:24:59;;;;;;;0.20;0.10;;;;;;;;;;5004259;28;20037;-86
2022/12/19 07:27:27;;;;;;;0.20;0.10;;;;;;;;;;5020059;28;20041;-85
2022/12/19 07:29:53;;;;;;;0.20;0.20;;;;;;;;;;5024390;28;20503;-84
2022/12/19 07:32:19;;;;;;;0.25;0.15;;;;;;;;;;4998658;28;21653;-86
2022/12/19 07:34:48;;;;;;;0.20;0.20;;;;;;;;;;5017970;28;20363;-85
2022/12/19 07:37:14;;;;;;;0.20;0.10;;;;;;;;;;5016006;28;20124;-86
2022/12/19 07:39:40;;;;;;;0.45;0.30;;;;;;;;;;5019223;28;20160;-85
2022/12/19 07:42:06;;;;;;;0.20;0.20;;;;;;;;;;5015642;28;20049;-88
2022/12/19 07:44:32;;;;;;;0.20;0.10;;;;;;;;;;5003712;28;20181;-83
2022/12/19 07:46:58;;;;;;;0.20;0.10;;;;;;;;;;5003023;28;20034;-85
2022/12/19 07:49:24;;;;;;;0.20;0.15;;;;;;;;;;4999497;28;20048;-85
2022/12/19 07:51:50;;;;;;;0.20;0.10;;;;;;;;;;5020052;28;20043;-86
2022/12/19 07:54:19;;;;;;;0.20;0.15;;;;;;;;;;5018142;28;20041;-85
2022/12/19 07:56:45;;;;;;;0.20;0.10;;;;;;;;;;5001004;28;20041;-86
2022/12/19 07:59:11;;;;;;;0.63;0.63;;;;;;;;;;5014242;28;20076;-87
2022/12/19 08:02:01;;;;;;;0.20;0.10;;;;;;;;;;5023166;28;20037;-86
2022/12/19 08:04:30;;;;;;;0.20;0.10;;;;;;;;;;5020991;28;20119;-86
2022/12/19 08:06:57;;;;;;;0.20;0.10;;;;;;;;;;5018039;28;20204;-85
2022/12/19 08:09:26;;;;;;;0.25;0.25;;;;;;;;;;5019544;28;20064;-86
2022/12/19 08:11:55;;;;;;;0.30;0.30;;;;;;;;;;5002719;28;20601;-86
2022/12/19 08:14:21;;;;;;;0.20;0.10;;;;;;;;;;5000586;28;20041;-87
2022/12/19 08:17:02;;;;;;;0.20;0.20;;;;;;;;;;5018582;28;20124;-84
2022/12/19 08:19:28;;;;;;;0.20;0.10;;;;;;;;;;5019569;28;20041;-85
2022/12/19 08:21:54;;;;;;;0.20;0.10;;;;;;;;;;5019225;28;20038;-88
2022/12/19 08:24:20;;;;;;;0.35;0.35;;;;;;;;;;5022277;28;20030;-86
2022/12/19 08:26:46;;;;;;;0.20;0.13;;;;;;;;;;5003477;28;20034;-85
2022/12/19 08:29:12;;;;;;;0.20;0.10;;;;;;;;;;5020827;28;20033;-86
2022/12/19 08:31:39;;;;;;;0.20;0.10;;;;;;;;;;5025566;28;20045;-87
2022/12/19 08:34:05;;;;;;;0.20;0.20;;;;;;;;;;5021854;28;20045;-86
2022/12/19 08:36:31;;;;;;;0.20;0.10;;;;;;;;;;5003080;28;20488;-87
2022/12/19 08:38:57;;;;;;;0.20;0.20;;;;;;;;;;5004849;28;20034;-85
2022/12/19 08:41:23;;;;;;;0.20;0.20;;;;;;;;;;5010317;28;20053;-88
2022/12/19 08:43:50;;;;;;;0.20;0.10;;;;;;;;;;5016524;28;20037;-88
2022/12/19 08:46:16;;;;;;;1.23;0.75;;;;;;;;;;5024189;28;20037;-88
2022/12/19 08:48:42;;;;;;;0.45;0.45;;;;;;;;;;5005922;28;20121;-86
2022/12/19 08:51:10;;;;;;;0.20;0.10;;;;;;;;;;5023532;28;20688;-85
2022/12/19 08:53:37;;;;;;;0.20;0.10;;;;;;;;;;5019559;28;20049;-88
2022/12/19 08:56:08;;;;;;;0.20;0.10;;;;;;;;;;5000358;28;20038;-86
2022/12/19 08:58:34;;;;;;;0.20;0.10;;;;;;;;;;5021900;28;20034;-87
2022/12/19 09:01:01;;;;;;;0.35;0.35;;;;;;;;;;5004959;28;20069;-85
2022/12/19 09:03:27;;;;;;;0.20;0.10;;;;;;;;;;5029220;28;20052;-87
2022/12/19 09:05:58;;;;;;;0.20;0.10;;;;;;;;;;5039213;28;20116;-85
2022/12/19 09:08:24;;;;;;;0.20;0.10;;;;;;;;;;5028992;28;20080;-85
2022/12/19 09:10:51;;;;;;;0.20;0.10;;;;;;;;;;5025043;28;20051;-86
2022/12/19 09:13:17;;;;;;;0.20;0.10;;;;;;;;;;5004464;28;20139;-86
2022/12/19 09:15:45;;;;;;;0.55;0.52;;;;;;;;;;5005560;28;20079;-88
2022/12/19 09:18:11;;;;;;;0.35;0.25;;;;;;;;;;5006632;28;20319;-87
2022/12/19 09:20:37;;;;;;;0.40;0.40;;;;;;;;;;5001518;28;20036;-86
2022/12/19 09:23:03;;;;;;;0.35;0.35;;;;;;;;;;5018786;28;20046;-87
2022/12/19 09:25:29;;;;;;;0.20;0.10;;;;;;;;;;5004094;28;20033;-86
2022/12/19 09:27:55;;;;;;;0.20;0.10;;;;;;;;;;5022359;28;20590;-87
2022/12/19 09:30:21;;;;;;;2.20;2.08;;;;;;;;;;5001846;28;20045;-84
2022/12/19 09:32:47;;;;;;;0.22;0.22;;;;;;;;;;5022232;28;20034;-84
2022/12/19 09:35:13;;;;;;;0.20;0.10;;;;;;;;;;5004687;28;20037;-86
2022/12/19 09:37:40;;;;;;;0.25;0.22;;;;;;;;;;5018469;28;20049;-87
2022/12/19 09:40:06;;;;;;;0.20;0.10;;;;;;;;;;5020393;28;20045;-84
2022/12/19 09:42:45;;;;;;;0.20;0.10;;;;;;;;;;5024449;28;20559;-85
2022/12/19 09:45:21;;;;;;;0.90;0.90;;;;;;;;;;5024078;28;20128;-85
2022/12/19 09:47:47;;;;;;;0.20;0.20;;;;;;;;;;5002291;28;20135;-87
2022/12/19 09:50:23;;;;;;;0.20;0.10;;;;;;;;;;5021168;28;20065;-86
2022/12/19 09:52:55;;;;;;;0.20;0.10;;;;;;;;;;5019524;28;20041;-85
2022/12/19 09:55:35;;;;;;;0.28;0.25;;;;;;;;;;5022138;28;20045;-86
2022/12/19 09:58:16;;;;;;;0.30;0.30;;;;;;;;;;5020101;28;20091;-83
2022/12/19 10:00:44;;;;;;;0.20;0.10;;;;;;;;;;5022168;28;20052;-86
2022/12/19 10:03:30;;;;;;;0.20;0.10;;;;;;;;;;5002889;28;20033;-85
2022/12/19 10:05:59;;;;;;;0.20;0.15;;;;;;;;;;5019641;28;20092;-87
2022/12/19 10:08:34;;;;;;;0.20;0.15;;;;;;;;;;5003883;28;20041;-87
2022/12/19 10:11:08;;;;;;;0.20;0.10;;;;;;;;;;5013546;28;20045;-83
2022/12/19 10:13:34;;;;;;;0.30;0.30;;;;;;;;;;5018119;28;20041;-88
2022/12/19 10:16:07;;;;;;;0.20;0.20;;;;;;;;;;5021233;28;20100;-84
2022/12/19 10:18:36;;;;;;;0.20;0.20;;;;;;;;;;4997782;28;20088;-86
2022/12/19 10:21:10;;;;;;;0.20;0.20;;;;;;;;;;5003181;28;20529;-84
2022/12/19 10:23:46;;;;;;;0.30;0.28;;;;;;;;;;5003818;28;20033;-84
2022/12/19 10:26:12;;;;;;;0.20;0.10;;;;;;;;;;5000428;28;20124;-87
2022/12/19 10:28:38;;;;;;;0.20;0.20;;;;;;;;;;5009823;28;20139;-84
2022/12/19 10:31:04;;;;;;;0.50;0.50;;;;;;;;;;5002527;28;20125;-86
2022/12/19 10:33:33;;;;;;;0.63;0.43;;;;;;;;;;4998271;28;20501;-83
2022/12/19 10:36:00;;;;;;;0.40;0.20;;;;;;;;;;5022504;28;20041;-86
2022/12/19 10:38:50;;;;;;;0.20;0.10;;;;;;;;;;5024327;28;20041;-85
2022/12/19 10:41:18;;;;;;;0.43;0.43;;;;;;;;;;5001209;28;20053;-86
2022/12/19 10:43:48;;;;;;;0.40;0.32;;;;;;;;;;5002652;28;20044;-85
2022/12/19 10:46:20;;;;;;;0.20;0.10;;;;;;;;;;5019790;28;20034;-86
2022/12/19 10:48:51;;;;;;;0.20;0.20;;;;;;;;;;5020262;28;20052;-85
2022/12/19 10:51:25;;;;;;;0.20;0.10;;;;;;;;;;5021495;28;20052;-83
2022/12/19 10:53:56;;;;;;;0.20;0.10;;;;;;;;;;5003484;28;20088;-86
2022/12/19 10:56:23;;;;;;;0.20;0.10;;;;;;;;;;5002829;28;20042;-85
2022/12/19 10:58:56;;;;;;;0.22;0.13;;;;;;;;;;5005349;28;20065;-84
2022/12/19 11:01:38;;;;;;;0.35;0.30;;;;;;;;;;5022048;28;20037;-84
2022/12/19 11:04:18;;;;;;;0.20;0.10;;;;;;;;;;5020638;28;20038;-83
2022/12/19 11:06:47;;;;;;;0.20;0.10;;;;;;;;;;5020801;28;20029;-85
2022/12/19 11:09:18;;;;;;;0.20;0.13;;;;;;;;;;5003231;28;20041;-84
2022/12/19 11:11:46;;;;;;;0.75;0.75;;;;;;;;;;4997097;28;20073;-83
2022/12/19 11:14:24;;;;;;;0.20;0.10;;;;;;;;;;5022040;28;20354;-87
2022/12/19 11:16:50;;;;;;;0.30;0.30;;;;;;;;;;5023197;28;20051;-82
2022/12/19 11:19:27;;;;;;;0.20;0.10;;;;;;;;;;5020903;28;20084;-85
2022/12/19 11:21:56;;;;;;;1.52;0.30;;;;;;;;;;5015753;28;20075;-82
2022/12/19 11:24:23;;;;;;;0.20;0.10;;;;;;;;;;5020884;28;20048;-84
2022/12/19 11:26:51;;;;;;;0.30;0.30;;;;;;;;;;5016573;28;20033;-88
2022/12/19 11:32:04;;;;;;;0.25;0.20;;;;;;;;;;4951485;28;20052;-80
2022/12/19 11:34:36;;;;;;;0.20;0.10;;;;;;;;;;4944451;28;20074;-80
2022/12/19 11:37:21;;;;;;;0.20;0.10;;;;;;;;;;4923309;28;20047;-85
2022/12/19 11:39:47;;;;;;;0.20;0.10;;;;;;;;;;4935609;28;20042;-81
2022/12/19 11:42:28;;;;;;;0.20;0.10;;;;;;;;;;4951856;28;20464;-80
2022/12/19 11:45:00;;;;;;;0.20;0.17;;;;;;;;;;4956623;28;20072;-82
2022/12/19 11:47:26;;;;;;;0.20;0.10;;;;;;;;;;4956065;28;20067;-80
2022/12/19 11:49:58;;;;;;;0.20;0.10;;;;;;;;;;4950010;28;20079;-79
2022/12/19 11:52:43;;;;;;;0.67;0.30;;;;;;;;;;4931452;28;20285;-82
2022/12/19 11:55:17;;;;;;;0.20;0.10;;;;;;;;;;4950137;28;20039;-81
2022/12/19 11:57:44;;;;;;;0.20;0.10;;;;;;;;;;4949344;28;20046;-79
2022/12/19 12:00:17;;;;;;;0.20;0.10;;;;;;;;;;4949305;28;20487;-83
2022/12/19 12:02:42;;;;;;;;;;;;;;;;;;4956588;28;20405;-81
2022/12/19 12:05:32;;;;;;;0.40;0.28;;;;;;;;;;4940647;28;19929;-83
2022/12/19 12:08:01;;;;;;;0.68;0.65;;;;;;;;;;4948782;28;20068;-81
2022/12/19 12:10:29;;;;;;;0.20;0.10;;;;;;;;;;4934286;28;20783;-82
2022/12/19 12:13:05;;;;;;;0.20;0.10;;;;;;;;;;4956117;28;20078;-79
2022/12/19 12:15:31;;;;;;;0.20;0.10;;;;;;;;;;4953417;28;20036;-79
2022/12/19 12:18:16;;;;;;;0.28;0.28;;;;;;;;;;4948894;28;20098;-80
2022/12/19 12:20:42;;;;;;;2.13;0.63;;;;;;;;;;4934312;28;20529;-81
2022/12/19 12:23:08;;;;;;;0.43;0.25;;;;;;;;;;4961054;28;20039;-80
2022/12/19 12:25:46;;;;;;;0.20;0.10;;;;;;;;;;4952960;28;20390;-80
2022/12/19 12:28:31;;;;;;;0.40;0.20;;;;;;;;;;4952383;28;20393;-83
2022/12/19 12:31:09;;;;;;;0.40;0.40;;;;;;;;;;4947576;28;20041;-83
2022/12/19 12:33:52;;;;;;;0.20;0.10;;;;;;;;;;4952884;28;20055;-82
2022/12/19 12:36:38;;;;;;;0.20;0.20;;;;;;;;;;4952866;28;20039;-80
2022/12/19 12:39:11;;;;;;;0.40;0.40;;;;;;;;;;4975046;28;20449;-80
2022/12/19 12:44:22;;;;;;;0.20;0.10;;;;;;;;;;4953342;28;20047;-82
2022/12/19 12:46:49;;;;;;;0.20;0.10;;;;;;;;;;4933947;28;20097;-80
2022/12/19 12:49:42;;;;;;;0.88;0.57;;;;;;;;;;4937755;28;20045;-80
2022/12/19 12:52:10;;;;;;;0.20;0.15;;;;;;;;;;4949210;28;20435;-81
2022/12/19 12:54:38;;;;;;;0.20;0.10;;;;;;;;;;4954857;28;20039;-80
2022/12/19 12:57:04;;;;;;;0.20;0.10;;;;;;;;;;4932169;28;20354;-80
2022/12/19 12:59:31;;;;;;;0.20;0.20;;;;;;;;;;4930623;28;20067;-80
2022/12/19 13:02:07;;;;;;;0.30;0.30;;;;;;;;;;4943221;28;20038;-81
2022/12/19 13:04:34;;;;;;;0.75;0.75;;;;;;;;;;4937203;28;20558;-80
2022/12/19 13:07:03;;;;;;;0.20;0.10;;;;;;;;;;4950922;28;20066;-83
2022/12/19 13:09:30;;;;;;;0.55;0.47;;;;;;;;;;4952684;28;20042;-81
2022/12/19 13:14:46;;;;;;;0.20;0.10;;;;;;;;;;4948764;28;20043;-81
2022/12/19 13:17:24;;;;;;;0.20;0.10;;;;;;;;;;4958266;28;20047;-80
2022/12/19 13:19:55;;;;;;;0.20;0.10;;;;;;;;;;4943243;28;20536;-80
2022/12/19 13:22:31;;;;;;;0.25;0.20;;;;;;;;;;4946619;28;20639;-80
2022/12/19 13:24:57;;;;;;;0.20;0.10;;;;;;;;;;4952339;28;20035;-80
2022/12/19 13:27:23;;;;;;;0.40;0.40;;;;;;;;;;4956007;28;20130;-80
2022/12/19 13:29:59;;;;;;;0.30;0.20;;;;;;;;;;4954979;28;20043;-82
2022/12/19 13:32:40;;;;;;;0.20;0.10;;;;;;;;;;4937692;28;20062;-79
2022/12/19 13:35:09;;;;;;;0.20;0.10;;;;;;;;;;4951818;28;20100;-80
2022/12/19 13:37:41;;;;;;;0.30;0.20;;;;;;;;;;5040171;28;20497;-80
2022/12/19 13:40:13;;;;;;;0.25;0.22;;;;;;;;;;4961132;28;20043;-81
2022/12/19 13:45:32;;;;;;;0.35;0.20;;;;;;;;;;4957362;28;20046;-80
2022/12/19 13:48:00;;;;;;;0.20;0.10;;;;;;;;;;4946692;28;20035;-79
2022/12/19 13:50:36;;;;;;;0.20;0.10;;;;;;;;;;4958245;28;20049;-78
2022/12/19 13:53:08;;;;;;;0.20;0.13;;;;;;;;;;4958938;28;20043;-81
2022/12/19 13:55:38;;;;;;;0.20;0.10;;;;;;;;;;5023607;28;20043;-80
2022/12/19 13:58:05;;;;;;;0.20;0.10;;;;;;;;;;4937049;28;20043;-80
2022/12/19 14:00:34;;;;;;;0.28;0.15;;;;;;;;;;4956030;28;20042;-82
2022/12/19 14:03:00;;;;;;;0.20;0.20;;;;;;;;;;4955000;28;20071;-79
2022/12/19 14:05:29;;;;;;;0.20;0.10;;;;;;;;;;4951219;28;20111;-78
2022/12/19 14:07:55;;;;;;;0.45;0.45;;;;;;;;;;4939168;28;20046;-80
2022/12/19 14:10:28;;;;;;;0.20;0.10;;;;;;;;;;4955127;28;20932;-79
2022/12/19 14:15:43;;;;;;;0.20;0.10;;;;;;;;;;4957361;28;20050;-82
2022/12/19 14:18:21;;;;;;;0.20;0.20;;;;;;;;;;4956890;28;20039;-80
2022/12/19 14:20:48;;;;;;;0.77;0.45;;;;;;;;;;4957001;28;20056;-80
2022/12/19 14:23:14;;;;;;;0.20;0.10;;;;;;;;;;4956471;28;20096;-78
2022/12/19 14:25:51;;;;;;;0.45;0.45;;;;;;;;;;4937441;28;20043;-79
2022/12/19 14:28:19;;;;;;;0.20;0.10;;;;;;;;;;5016830;28;20039;-81
2022/12/19 14:30:51;;;;;;;0.20;0.10;;;;;;;;;;5022829;28;20036;-81
2022/12/19 14:33:20;;;;;;;0.20;0.10;;;;;;;;;;4959237;28;20498;-79
2022/12/19 14:35:48;;;;;;;0.22;0.22;;;;;;;;;;4956254;28;20142;-79
2022/12/19 14:38:19;;;;;;;0.20;0.10;;;;;;;;;;4943978;28;20042;-80
2022/12/19 14:40:45;;;;;;;0.20;0.10;;;;;;;;;;4940956;28;20062;-80
2022/12/19 14:43:39;;;;;;;2.28;0.70;;;;;;;;;;4944993;28;20043;-80
2022/12/19 14:46:20;;;;;;;0.20;0.10;;;;;;;;;;4954977;28;20038;-80
2022/12/19 14:48:57;;;;;;;0.20;0.10;;;;;;;;;;4971353;28;20039;-78
2022/12/19 14:51:42;;;;;;;0.30;0.17;;;;;;;;;;4952457;28;20057;-80
2022/12/19 14:54:08;;;;;;;0.20;0.10;;;;;;;;;;4957285;28;20066;-80
2022/12/19 14:56:49;;;;;;;0.20;0.10;;;;;;;;;;4927567;28;20131;-78
2022/12/19 14:59:18;;;;;;;0.45;0.35;;;;;;;;;;4945010;28;20527;-79
2022/12/19 15:01:50;;;;;;;0.20;0.10;;;;;;;;;;4960329;28;20516;-81
2022/12/19 15:04:17;;;;;;;;;;;;;;;;;;4942844;28;20043;-82
2022/12/19 15:06:43;;;;;;;0.20;0.10;;;;;;;;;;4943339;28;19984;-79
2022/12/19 15:09:13;;;;;;;0.20;0.10;;;;;;;;;;4950709;28;20043;-79
2022/12/19 15:14:32;;;;;;;0.20;0.10;;;;;;;;;;4962572;28;20050;-81
2022/12/19 15:17:14;;;;;;;0.50;0.38;;;;;;;;;;4950804;28;20458;-78
2022/12/19 15:19:40;;;;;;;0.20;0.10;;;;;;;;;;4956045;28;20122;-81